sensor_id;sensor_type;location;lat;lon;timestamp;temperature;humidity
435;DHT22;204;48.942;9.256;2023-07-13T00:01:58;20.60;99.90
435;DHT22;204;48.942;9.256;2023-07-13T00:04:24;20.50;99.90
435;DHT22;204;48.942;9.256;2023-07-13T00:06:53;20.40;99.90
435;DHT22;204;48.942;9.256;2023-07-13T00:09:19;20.40;99.90
435;DHT22;204;48.942;9.256;2023-07-13T00:11:49;20.40;99.90
435;DHT22;204;48.942;9.256;2023-07-13T00:14:15;20.30;99.90
435;DHT22;204;48.942;9.256;2023-07-13T00:16:41;20.30;99.90
435;DHT22;204;48.942;9.256;2023-07-13T00:19:09;20.20;99.90
435;DHT22;204;48.942;9.256;2023-07-13T00:21:35;20.20;99.90
435;DHT22;204;48.942;9.256;2023-07-13T00:24:00;20.20;99.90
435;DHT22;204;48.942;9.256;2023-07-13T00:26:27;20.10;99.90
435;DHT22;204;48.942;9.256;2023-07-13T00:28:52;20.00;99.90
435;DHT22;204;48.942;9.256;2023-07-13T00:31:18;20.00;99.90
435;DHT22;204;48.942;9.256;2023-07-13T00:33:44;19.90;99.90
435;DHT22;204;48.942;9.256;2023-07-13T00:36:10;19.90;99.90
435;DHT22;204;48.942;9.256;2023-07-13T00:38:37;19.80;99.90
435;DHT22;204;48.942;9.256;2023-07-13T00:41:03;19.70;99.90
435;DHT22;204;48.942;9.256;2023-07-13T00:43:30;19.70;99.90
435;DHT22;204;48.942;9.256;2023-07-13T00:48:27;19.60;99.90
435;DHT22;204;48.942;9.256;2023-07-13T00:50:56;19.60;99.90
435;DHT22;204;48.942;9.256;2023-07-13T00:53:25;19.50;99.90
435;DHT22;204;48.942;9.256;2023-07-13T00:55:51;19.40;99.90
435;DHT22;204;48.942;9.256;2023-07-13T00:58:19;19.40;99.90
435;DHT22;204;48.942;9.256;2023-07-13T01:00:46;19.30;99.90
435;DHT22;204;48.942;9.256;2023-07-13T01:03:12;19.30;99.90
435;DHT22;204;48.942;9.256;2023-07-13T01:05:38;19.20;99.90
435;DHT22;204;48.942;9.256;2023-07-13T01:08:04;19.10;99.90
435;DHT22;204;48.942;9.256;2023-07-13T01:10:31;19.10;99.90
435;DHT22;204;48.942;9.256;2023-07-13T01:13:08;19.00;99.90
435;DHT22;204;48.942;9.256;2023-07-13T01:18:07;18.90;99.90
435;DHT22;204;48.942;9.256;2023-07-13T01:20:33;18.80;99.90
435;DHT22;204;48.942;9.256;2023-07-13T01:23:11;18.70;99.90
435;DHT22;204;48.942;9.256;2023-07-13T01:25:38;18.70;99.90
435;DHT22;204;48.942;9.256;2023-07-13T01:28:05;18.60;99.90
435;DHT22;204;48.942;9.256;2023-07-13T01:30:31;18.50;99.90
435;DHT22;204;48.942;9.256;2023-07-13T01:32:57;18.40;99.90
435;DHT22;204;48.942;9.256;2023-07-13T01:35:23;18.40;99.90
435;DHT22;204;48.942;9.256;2023-07-13T01:37:50;18.30;99.90
435;DHT22;204;48.942;9.256;2023-07-13T01:40:16;18.30;99.90
435;DHT22;204;48.942;9.256;2023-07-13T01:42:42;18.20;99.90
435;DHT22;204;48.942;9.256;2023-07-13T01:45:08;18.20;99.90
435;DHT22;204;48.942;9.256;2023-07-13T01:47:33;18.10;99.90
435;DHT22;204;48.942;9.256;2023-07-13T01:49:59;18.10;99.90
435;DHT22;204;48.942;9.256;2023-07-13T01:52:24;18.10;99.90
435;DHT22;204;48.942;9.256;2023-07-13T01:54:50;18.00;99.90
435;DHT22;204;48.942;9.256;2023-07-13T01:57:16;17.90;99.90
435;DHT22;204;48.942;9.256;2023-07-13T01:59:42;17.90;99.90
435;DHT22;204;48.942;9.256;2023-07-13T02:02:07;17.80;99.90
435;DHT22;204;48.942;9.256;2023-07-13T02:04:33;17.70;99.90
435;DHT22;204;48.942;9.256;2023-07-13T02:06:59;17.70;99.90
435;DHT22;204;48.942;9.256;2023-07-13T02:09:24;17.60;99.90
435;DHT22;204;48.942;9.256;2023-07-13T02:11:50;17.60;99.90
435;DHT22;204;48.942;9.256;2023-07-13T02:14:15;17.50;99.90
435;DHT22;204;48.942;9.256;2023-07-13T02:16:42;17.40;99.90
435;DHT22;204;48.942;9.256;2023-07-13T02:19:08;17.40;99.90
435;DHT22;204;48.942;9.256;2023-07-13T02:21:34;17.30;99.90
435;DHT22;204;48.942;9.256;2023-07-13T02:23:59;17.30;99.90
435;DHT22;204;48.942;9.256;2023-07-13T02:26:26;17.30;99.90
435;DHT22;204;48.942;9.256;2023-07-13T02:28:51;17.20;99.90
435;DHT22;204;48.942;9.256;2023-07-13T02:31:17;17.20;99.90
435;DHT22;204;48.942;9.256;2023-07-13T02:33:43;17.10;99.90
435;DHT22;204;48.942;9.256;2023-07-13T02:36:09;17.10;99.90
435;DHT22;204;48.942;9.256;2023-07-13T02:38:35;17.00;99.90
435;DHT22;204;48.942;9.256;2023-07-13T02:41:03;17.00;99.90
435;DHT22;204;48.942;9.256;2023-07-13T02:43:28;16.90;99.90
435;DHT22;204;48.942;9.256;2023-07-13T02:45:55;16.90;99.90
435;DHT22;204;48.942;9.256;2023-07-13T02:48:20;16.90;1.00
435;DHT22;204;48.942;9.256;2023-07-13T02:50:46;16.80;1.00
435;DHT22;204;48.942;9.256;2023-07-13T02:53:11;16.80;99.90
435;DHT22;204;48.942;9.256;2023-07-13T02:55:37;16.70;1.00
435;DHT22;204;48.942;9.256;2023-07-13T02:58:03;16.70;1.00
435;DHT22;204;48.942;9.256;2023-07-13T03:00:28;16.60;1.00
435;DHT22;204;48.942;9.256;2023-07-13T03:02:54;16.60;1.00
435;DHT22;204;48.942;9.256;2023-07-13T03:05:22;16.50;1.00
435;DHT22;204;48.942;9.256;2023-07-13T03:07:48;16.50;1.00
435;DHT22;204;48.942;9.256;2023-07-13T03:10:14;16.50;1.00
435;DHT22;204;48.942;9.256;2023-07-13T03:12:39;16.50;1.00
435;DHT22;204;48.942;9.256;2023-07-13T03:15:05;16.40;1.00
435;DHT22;204;48.942;9.256;2023-07-13T03:17:31;16.40;1.00
435;DHT22;204;48.942;9.256;2023-07-13T03:19:57;16.40;1.00
435;DHT22;204;48.942;9.256;2023-07-13T03:22:22;16.30;1.00
435;DHT22;204;48.942;9.256;2023-07-13T03:24:48;16.30;1.00
435;DHT22;204;48.942;9.256;2023-07-13T03:27:14;16.30;1.00
435;DHT22;204;48.942;9.256;2023-07-13T03:29:40;16.30;1.00
435;DHT22;204;48.942;9.256;2023-07-13T03:32:06;16.40;1.00
435;DHT22;204;48.942;9.256;2023-07-13T03:34:31;16.40;1.00
435;DHT22;204;48.942;9.256;2023-07-13T03:36:58;16.40;1.00
435;DHT22;204;48.942;9.256;2023-07-13T03:39:23;16.40;1.00
435;DHT22;204;48.942;9.256;2023-07-13T03:41:49;16.40;1.00
435;DHT22;204;48.942;9.256;2023-07-13T03:44:16;16.50;1.00
435;DHT22;204;48.942;9.256;2023-07-13T03:46:42;16.50;1.00
435;DHT22;204;48.942;9.256;2023-07-13T03:49:08;16.50;1.00
435;DHT22;204;48.942;9.256;2023-07-13T03:51:34;16.60;1.00
435;DHT22;204;48.942;9.256;2023-07-13T03:54:00;16.70;1.00
435;DHT22;204;48.942;9.256;2023-07-13T03:56:26;16.70;1.00
435;DHT22;204;48.942;9.256;2023-07-13T03:58:52;16.70;1.00
435;DHT22;204;48.942;9.256;2023-07-13T04:01:20;16.80;1.00
435;DHT22;204;48.942;9.256;2023-07-13T04:03:46;17.00;1.00
435;DHT22;204;48.942;9.256;2023-07-13T04:06:25;17.10;1.00
435;DHT22;204;48.942;9.256;2023-07-13T04:08:57;17.20;1.00
435;DHT22;204;48.942;9.256;2023-07-13T04:11:25;17.20;1.00
435;DHT22;204;48.942;9.256;2023-07-13T04:13:51;17.30;1.00
435;DHT22;204;48.942;9.256;2023-07-13T04:16:18;17.40;1.00
435;DHT22;204;48.942;9.256;2023-07-13T04:18:45;17.50;1.00
435;DHT22;204;48.942;9.256;2023-07-13T04:21:10;17.40;1.00
435;DHT22;204;48.942;9.256;2023-07-13T04:23:38;17.50;1.00
435;DHT22;204;48.942;9.256;2023-07-13T04:26:04;17.50;1.00
435;DHT22;204;48.942;9.256;2023-07-13T04:28:30;17.60;1.00
435;DHT22;204;48.942;9.256;2023-07-13T04:30:56;17.70;99.90
435;DHT22;204;48.942;9.256;2023-07-13T04:33:22;17.80;99.90
435;DHT22;204;48.942;9.256;2023-07-13T04:35:49;17.80;99.90
435;DHT22;204;48.942;9.256;2023-07-13T04:38:15;17.90;99.90
435;DHT22;204;48.942;9.256;2023-07-13T04:40:44;17.90;99.90
435;DHT22;204;48.942;9.256;2023-07-13T04:43:10;18.00;99.90
435;DHT22;204;48.942;9.256;2023-07-13T04:45:36;18.00;99.90
435;DHT22;204;48.942;9.256;2023-07-13T04:48:01;18.10;99.90
435;DHT22;204;48.942;9.256;2023-07-13T04:50:27;18.10;99.90
435;DHT22;204;48.942;9.256;2023-07-13T04:52:53;18.10;99.90
435;DHT22;204;48.942;9.256;2023-07-13T04:55:19;18.20;99.90
435;DHT22;204;48.942;9.256;2023-07-13T04:57:45;18.30;99.90
435;DHT22;204;48.942;9.256;2023-07-13T05:00:12;18.40;99.90
435;DHT22;204;48.942;9.256;2023-07-13T05:02:39;18.50;99.90
435;DHT22;204;48.942;9.256;2023-07-13T05:05:05;18.50;99.90
435;DHT22;204;48.942;9.256;2023-07-13T05:07:31;18.60;99.90
435;DHT22;204;48.942;9.256;2023-07-13T05:09:59;18.70;99.90
435;DHT22;204;48.942;9.256;2023-07-13T05:12:25;18.80;99.90
435;DHT22;204;48.942;9.256;2023-07-13T05:14:50;19.00;99.90
435;DHT22;204;48.942;9.256;2023-07-13T05:17:16;19.30;99.90
435;DHT22;204;48.942;9.256;2023-07-13T05:19:42;19.60;99.90
435;DHT22;204;48.942;9.256;2023-07-13T05:22:07;20.10;99.90
435;DHT22;204;48.942;9.256;2023-07-13T05:24:33;20.50;99.90
435;DHT22;204;48.942;9.256;2023-07-13T05:26:59;20.70;99.90
435;DHT22;204;48.942;9.256;2023-07-13T05:29:24;20.80;99.90
435;DHT22;204;48.942;9.256;2023-07-13T05:31:50;20.90;99.90
435;DHT22;204;48.942;9.256;2023-07-13T05:34:16;21.00;99.90
435;DHT22;204;48.942;9.256;2023-07-13T05:36:42;20.90;99.90
435;DHT22;204;48.942;9.256;2023-07-13T05:39:07;20.60;99.90
435;DHT22;204;48.942;9.256;2023-07-13T05:41:33;20.50;99.90
435;DHT22;204;48.942;9.256;2023-07-13T05:43:59;20.40;99.90
435;DHT22;204;48.942;9.256;2023-07-13T05:46:25;20.30;99.90
435;DHT22;204;48.942;9.256;2023-07-13T05:48:50;20.20;99.90
435;DHT22;204;48.942;9.256;2023-07-13T05:51:16;20.10;99.90
435;DHT22;204;48.942;9.256;2023-07-13T05:53:41;20.10;99.90
435;DHT22;204;48.942;9.256;2023-07-13T05:56:07;20.30;99.90
435;DHT22;204;48.942;9.256;2023-07-13T05:58:33;20.30;99.90
435;DHT22;204;48.942;9.256;2023-07-13T06:01:10;20.50;99.90
435;DHT22;204;48.942;9.256;2023-07-13T06:03:36;20.40;99.90
435;DHT22;204;48.942;9.256;2023-07-13T06:06:04;20.50;99.90
435;DHT22;204;48.942;9.256;2023-07-13T06:08:30;20.50;99.90
435;DHT22;204;48.942;9.256;2023-07-13T06:11:18;20.50;99.90
435;DHT22;204;48.942;9.256;2023-07-13T06:13:44;20.70;99.90
435;DHT22;204;48.942;9.256;2023-07-13T06:16:11;21.00;99.90
435;DHT22;204;48.942;9.256;2023-07-13T06:18:40;21.40;99.90
435;DHT22;204;48.942;9.256;2023-07-13T06:21:17;21.70;99.90
435;DHT22;204;48.942;9.256;2023-07-13T06:23:44;22.00;99.90
435;DHT22;204;48.942;9.256;2023-07-13T06:26:11;22.30;99.90
435;DHT22;204;48.942;9.256;2023-07-13T06:28:37;22.50;99.90
435;DHT22;204;48.942;9.256;2023-07-13T06:31:08;22.30;99.90
435;DHT22;204;48.942;9.256;2023-07-13T06:33:34;22.40;99.90
435;DHT22;204;48.942;9.256;2023-07-13T06:36:02;22.50;99.90
435;DHT22;204;48.942;9.256;2023-07-13T06:38:27;22.50;99.90
435;DHT22;204;48.942;9.256;2023-07-13T06:40:53;22.40;99.90
435;DHT22;204;48.942;9.256;2023-07-13T06:43:19;22.30;99.90
435;DHT22;204;48.942;9.256;2023-07-13T06:45:47;22.30;99.90
435;DHT22;204;48.942;9.256;2023-07-13T06:48:15;22.30;99.90
435;DHT22;204;48.942;9.256;2023-07-13T06:50:42;22.30;99.90
435;DHT22;204;48.942;9.256;2023-07-13T06:53:08;22.60;99.90
435;DHT22;204;48.942;9.256;2023-07-13T06:55:34;22.80;99.90
435;DHT22;204;48.942;9.256;2023-07-13T06:57:59;23.10;99.90
435;DHT22;204;48.942;9.256;2023-07-13T07:00:25;23.10;99.90
435;DHT22;204;48.942;9.256;2023-07-13T07:02:50;23.20;99.90
435;DHT22;204;48.942;9.256;2023-07-13T07:05:16;23.30;99.90
435;DHT22;204;48.942;9.256;2023-07-13T07:07:42;23.40;99.90
435;DHT22;204;48.942;9.256;2023-07-13T07:10:07;23.40;99.90
435;DHT22;204;48.942;9.256;2023-07-13T07:12:33;23.40;99.90
435;DHT22;204;48.942;9.256;2023-07-13T07:14:59;23.50;99.90
435;DHT22;204;48.942;9.256;2023-07-13T07:17:24;23.50;99.90
435;DHT22;204;48.942;9.256;2023-07-13T07:19:51;23.50;99.90
435;DHT22;204;48.942;9.256;2023-07-13T07:22:19;23.50;99.90
435;DHT22;204;48.942;9.256;2023-07-13T07:24:45;23.80;99.90
435;DHT22;204;48.942;9.256;2023-07-13T07:27:10;24.00;99.90
435;DHT22;204;48.942;9.256;2023-07-13T07:29:36;24.20;99.90
435;DHT22;204;48.942;9.256;2023-07-13T07:32:02;24.30;99.90
435;DHT22;204;48.942;9.256;2023-07-13T07:34:27;24.40;99.90
435;DHT22;204;48.942;9.256;2023-07-13T07:36:54;24.40;99.90
435;DHT22;204;48.942;9.256;2023-07-13T07:39:19;24.60;99.90
435;DHT22;204;48.942;9.256;2023-07-13T07:41:45;24.70;99.90
435;DHT22;204;48.942;9.256;2023-07-13T07:44:11;24.80;99.90
435;DHT22;204;48.942;9.256;2023-07-13T07:46:36;25.00;99.90
435;DHT22;204;48.942;9.256;2023-07-13T07:49:02;25.10;99.90
435;DHT22;204;48.942;9.256;2023-07-13T07:51:28;25.20;99.90
435;DHT22;204;48.942;9.256;2023-07-13T07:53:53;25.30;99.90
435;DHT22;204;48.942;9.256;2023-07-13T07:56:19;25.30;99.90
435;DHT22;204;48.942;9.256;2023-07-13T07:58:45;25.30;99.90
435;DHT22;204;48.942;9.256;2023-07-13T08:01:10;25.30;99.90
435;DHT22;204;48.942;9.256;2023-07-13T08:03:36;25.30;99.90
435;DHT22;204;48.942;9.256;2023-07-13T08:06:01;25.30;99.90
435;DHT22;204;48.942;9.256;2023-07-13T08:08:27;25.30;99.90
435;DHT22;204;48.942;9.256;2023-07-13T08:10:53;25.30;99.90
435;DHT22;204;48.942;9.256;2023-07-13T08:13:19;25.40;99.90
435;DHT22;204;48.942;9.256;2023-07-13T08:15:44;25.40;99.90
435;DHT22;204;48.942;9.256;2023-07-13T08:18:11;25.40;99.90
435;DHT22;204;48.942;9.256;2023-07-13T08:20:38;25.50;99.90
435;DHT22;204;48.942;9.256;2023-07-13T08:23:03;25.70;99.90
435;DHT22;204;48.942;9.256;2023-07-13T08:25:29;25.90;99.90
435;DHT22;204;48.942;9.256;2023-07-13T08:27:55;25.90;99.90
435;DHT22;204;48.942;9.256;2023-07-13T08:30:20;25.90;99.90
435;DHT22;204;48.942;9.256;2023-07-13T08:32:46;26.00;99.90
435;DHT22;204;48.942;9.256;2023-07-13T08:35:11;26.00;99.90
435;DHT22;204;48.942;9.256;2023-07-13T08:37:38;26.00;99.90
435;DHT22;204;48.942;9.256;2023-07-13T08:40:05;26.00;99.90
435;DHT22;204;48.942;9.256;2023-07-13T08:42:38;25.90;99.90
435;DHT22;204;48.942;9.256;2023-07-13T08:48:13;26.00;99.90
435;DHT22;204;48.942;9.256;2023-07-13T08:50:49;26.10;99.90
435;DHT22;204;48.942;9.256;2023-07-13T08:53:16;26.10;99.90
435;DHT22;204;48.942;9.256;2023-07-13T08:55:43;25.90;99.90
435;DHT22;204;48.942;9.256;2023-07-13T08:58:13;25.90;99.90
435;DHT22;204;48.942;9.256;2023-07-13T09:01:01;25.90;99.90
435;DHT22;204;48.942;9.256;2023-07-13T09:03:33;26.10;99.90
435;DHT22;204;48.942;9.256;2023-07-13T09:06:03;26.30;99.90
435;DHT22;204;48.942;9.256;2023-07-13T09:16:34;26.60;99.90
435;DHT22;204;48.942;9.256;2023-07-13T09:19:04;26.60;99.90
435;DHT22;204;48.942;9.256;2023-07-13T09:21:38;26.60;99.90
435;DHT22;204;48.942;9.256;2023-07-13T09:26:55;26.70;99.90
435;DHT22;204;48.942;9.256;2023-07-13T09:29:28;26.80;99.90
435;DHT22;204;48.942;9.256;2023-07-13T09:31:58;26.90;99.90
435;DHT22;204;48.942;9.256;2023-07-13T09:34:26;27.20;99.90
435;DHT22;204;48.942;9.256;2023-07-13T09:36:52;27.40;99.90
435;DHT22;204;48.942;9.256;2023-07-13T09:39:26;27.50;99.90
435;DHT22;204;48.942;9.256;2023-07-13T09:44:37;27.80;99.90
435;DHT22;204;48.942;9.256;2023-07-13T09:47:15;27.80;99.90
435;DHT22;204;48.942;9.256;2023-07-13T09:49:41;27.70;99.90
435;DHT22;204;48.942;9.256;2023-07-13T09:52:12;27.60;99.90
435;DHT22;204;48.942;9.256;2023-07-13T09:54:38;27.60;99.90
435;DHT22;204;48.942;9.256;2023-07-13T09:57:13;27.70;99.90
435;DHT22;204;48.942;9.256;2023-07-13T09:59:44;27.80;99.90
435;DHT22;204;48.942;9.256;2023-07-13T10:02:31;27.80;99.90
435;DHT22;204;48.942;9.256;2023-07-13T10:07:30;27.90;99.90
435;DHT22;204;48.942;9.256;2023-07-13T10:10:00;28.00;99.90
435;DHT22;204;48.942;9.256;2023-07-13T10:12:28;27.90;99.90
435;DHT22;204;48.942;9.256;2023-07-13T10:14:55;27.80;99.90
435;DHT22;204;48.942;9.256;2023-07-13T10:17:28;27.60;99.90
435;DHT22;204;48.942;9.256;2023-07-13T10:20:06;27.70;99.90
435;DHT22;204;48.942;9.256;2023-07-13T10:22:50;27.70;99.90
435;DHT22;204;48.942;9.256;2023-07-13T10:25:39;27.80;99.90
435;DHT22;204;48.942;9.256;2023-07-13T10:28:31;27.80;99.90
435;DHT22;204;48.942;9.256;2023-07-13T10:30:59;27.90;99.90
435;DHT22;204;48.942;9.256;2023-07-13T10:33:26;28.00;99.90
435;DHT22;204;48.942;9.256;2023-07-13T10:36:03;28.20;99.90
435;DHT22;204;48.942;9.256;2023-07-13T10:38:31;28.30;99.90
435;DHT22;204;48.942;9.256;2023-07-13T10:41:04;28.40;99.90
435;DHT22;204;48.942;9.256;2023-07-13T10:43:41;28.40;99.90
435;DHT22;204;48.942;9.256;2023-07-13T10:46:11;28.40;99.90
435;DHT22;204;48.942;9.256;2023-07-13T10:48:39;28.50;99.90
435;DHT22;204;48.942;9.256;2023-07-13T10:51:06;28.40;99.90
435;DHT22;204;48.942;9.256;2023-07-13T10:53:34;28.50;99.90
435;DHT22;204;48.942;9.256;2023-07-13T10:56:29;28.60;99.90
435;DHT22;204;48.942;9.256;2023-07-13T11:01:49;28.60;99.90
435;DHT22;204;48.942;9.256;2023-07-13T11:04:16;28.70;99.90
435;DHT22;204;48.942;9.256;2023-07-13T11:06:42;28.90;99.90
435;DHT22;204;48.942;9.256;2023-07-13T11:12:06;28.70;99.90
435;DHT22;204;48.942;9.256;2023-07-13T11:14:42;28.50;99.90
435;DHT22;204;48.942;9.256;2023-07-13T11:20:23;28.40;99.90
435;DHT22;204;48.942;9.256;2023-07-13T11:25:41;28.40;99.90
435;DHT22;204;48.942;9.256;2023-07-13T11:33:53;28.50;99.90
435;DHT22;204;48.942;9.256;2023-07-13T11:36:21;28.90;99.90
435;DHT22;204;48.942;9.256;2023-07-13T11:41:29;29.30;99.90
435;DHT22;204;48.942;9.256;2023-07-13T11:44:17;29.60;99.90
435;DHT22;204;48.942;9.256;2023-07-13T11:49:21;29.50;99.90
435;DHT22;204;48.942;9.256;2023-07-13T11:51:47;29.10;99.90
435;DHT22;204;48.942;9.256;2023-07-13T11:54:29;29.00;99.90
435;DHT22;204;48.942;9.256;2023-07-13T11:56:57;29.10;99.90
435;DHT22;204;48.942;9.256;2023-07-13T11:59:26;29.10;99.90
435;DHT22;204;48.942;9.256;2023-07-13T12:01:54;29.30;99.90
435;DHT22;204;48.942;9.256;2023-07-13T12:06:58;29.60;99.90
435;DHT22;204;48.942;9.256;2023-07-13T12:09:28;29.70;99.90
435;DHT22;204;48.942;9.256;2023-07-13T12:11:57;29.70;99.90
435;DHT22;204;48.942;9.256;2023-07-13T12:14:23;29.50;99.90
435;DHT22;204;48.942;9.256;2023-07-13T12:16:52;29.50;99.90
435;DHT22;204;48.942;9.256;2023-07-13T12:19:22;29.30;99.90
435;DHT22;204;48.942;9.256;2023-07-13T12:21:49;29.40;99.90
435;DHT22;204;48.942;9.256;2023-07-13T12:24:20;29.30;99.90
435;DHT22;204;48.942;9.256;2023-07-13T12:29:26;29.10;99.90
435;DHT22;204;48.942;9.256;2023-07-13T12:31:52;29.10;99.90
435;DHT22;204;48.942;9.256;2023-07-13T12:34:22;29.20;99.90
435;DHT22;204;48.942;9.256;2023-07-13T12:41:48;29.40;99.90
435;DHT22;204;48.942;9.256;2023-07-13T12:44:32;29.40;99.90
435;DHT22;204;48.942;9.256;2023-07-13T12:47:03;29.70;99.90
435;DHT22;204;48.942;9.256;2023-07-13T12:49:32;29.80;99.90
435;DHT22;204;48.942;9.256;2023-07-13T12:52:03;29.90;99.90
435;DHT22;204;48.942;9.256;2023-07-13T12:54:29;29.90;99.90
435;DHT22;204;48.942;9.256;2023-07-13T12:56:57;29.90;99.90
435;DHT22;204;48.942;9.256;2023-07-13T12:59:26;29.90;99.90
435;DHT22;204;48.942;9.256;2023-07-13T13:01:54;30.00;99.90
435;DHT22;204;48.942;9.256;2023-07-13T13:04:20;30.20;99.90
435;DHT22;204;48.942;9.256;2023-07-13T13:06:47;30.10;99.90
435;DHT22;204;48.942;9.256;2023-07-13T13:09:15;30.00;99.90
435;DHT22;204;48.942;9.256;2023-07-13T13:11:41;29.90;99.90
435;DHT22;204;48.942;9.256;2023-07-13T13:14:07;29.60;99.90
435;DHT22;204;48.942;9.256;2023-07-13T13:16:47;29.40;99.90
435;DHT22;204;48.942;9.256;2023-07-13T13:21:43;29.00;99.90
435;DHT22;204;48.942;9.256;2023-07-13T13:24:17;29.00;99.90
435;DHT22;204;48.942;9.256;2023-07-13T13:26:43;29.00;99.90
435;DHT22;204;48.942;9.256;2023-07-13T13:29:17;29.00;99.90
435;DHT22;204;48.942;9.256;2023-07-13T13:31:44;28.90;99.90
435;DHT22;204;48.942;9.256;2023-07-13T13:34:11;28.80;99.90
435;DHT22;204;48.942;9.256;2023-07-13T13:36:37;28.90;99.90
435;DHT22;204;48.942;9.256;2023-07-13T13:39:10;29.10;99.90
435;DHT22;204;48.942;9.256;2023-07-13T13:41:42;29.20;99.90
435;DHT22;204;48.942;9.256;2023-07-13T13:44:09;29.30;99.90
435;DHT22;204;48.942;9.256;2023-07-13T13:46:35;29.30;99.90
435;DHT22;204;48.942;9.256;2023-07-13T13:49:01;29.40;99.90
435;DHT22;204;48.942;9.256;2023-07-13T13:51:26;29.50;99.90
435;DHT22;204;48.942;9.256;2023-07-13T13:53:52;29.70;99.90
435;DHT22;204;48.942;9.256;2023-07-13T13:56:19;29.70;99.90
435;DHT22;204;48.942;9.256;2023-07-13T13:58:45;29.70;99.90
435;DHT22;204;48.942;9.256;2023-07-13T14:01:19;29.30;99.90
435;DHT22;204;48.942;9.256;2023-07-13T14:03:45;29.10;99.90
435;DHT22;204;48.942;9.256;2023-07-13T14:06:15;29.00;99.90
435;DHT22;204;48.942;9.256;2023-07-13T14:08:41;28.80;99.90
435;DHT22;204;48.942;9.256;2023-07-13T14:11:13;28.70;99.90
435;DHT22;204;48.942;9.256;2023-07-13T14:13:43;28.70;99.90
435;DHT22;204;48.942;9.256;2023-07-13T14:16:12;28.40;99.90
435;DHT22;204;48.942;9.256;2023-07-13T14:18:38;28.20;99.90
435;DHT22;204;48.942;9.256;2023-07-13T14:21:13;28.10;99.90
435;DHT22;204;48.942;9.256;2023-07-13T14:23:39;28.00;99.90
435;DHT22;204;48.942;9.256;2023-07-13T14:26:16;27.90;99.90
435;DHT22;204;48.942;9.256;2023-07-13T14:28:45;27.90;99.90
435;DHT22;204;48.942;9.256;2023-07-13T14:31:13;27.90;99.90
435;DHT22;204;48.942;9.256;2023-07-13T14:33:39;28.00;99.90
435;DHT22;204;48.942;9.256;2023-07-13T14:36:27;28.00;99.90
435;DHT22;204;48.942;9.256;2023-07-13T14:38:55;28.20;99.90
435;DHT22;204;48.942;9.256;2023-07-13T14:41:21;28.10;99.90
435;DHT22;204;48.942;9.256;2023-07-13T14:43:47;28.10;99.90
435;DHT22;204;48.942;9.256;2023-07-13T14:46:28;28.00;99.90
435;DHT22;204;48.942;9.256;2023-07-13T14:49:06;27.90;99.90
435;DHT22;204;48.942;9.256;2023-07-13T14:51:33;27.90;99.90
435;DHT22;204;48.942;9.256;2023-07-13T14:54:04;27.80;99.90
435;DHT22;204;48.942;9.256;2023-07-13T14:56:30;27.80;99.90
435;DHT22;204;48.942;9.256;2023-07-13T14:58:55;27.70;99.90
435;DHT22;204;48.942;9.256;2023-07-13T15:01:21;27.60;99.90
435;DHT22;204;48.942;9.256;2023-07-13T15:03:50;27.50;99.90
435;DHT22;204;48.942;9.256;2023-07-13T15:06:16;27.50;99.90
435;DHT22;204;48.942;9.256;2023-07-13T15:08:42;27.50;99.90
435;DHT22;204;48.942;9.256;2023-07-13T15:11:08;27.40;99.90
435;DHT22;204;48.942;9.256;2023-07-13T15:13:38;27.50;99.90
435;DHT22;204;48.942;9.256;2023-07-13T15:16:04;27.40;99.90
435;DHT22;204;48.942;9.256;2023-07-13T15:18:30;27.40;99.90
435;DHT22;204;48.942;9.256;2023-07-13T15:20:56;27.40;99.90
435;DHT22;204;48.942;9.256;2023-07-13T15:23:23;27.30;99.90
435;DHT22;204;48.942;9.256;2023-07-13T15:25:49;27.30;99.90
435;DHT22;204;48.942;9.256;2023-07-13T15:28:15;27.30;99.90
435;DHT22;204;48.942;9.256;2023-07-13T15:30:46;27.30;99.90
435;DHT22;204;48.942;9.256;2023-07-13T15:33:21;27.20;99.90
435;DHT22;204;48.942;9.256;2023-07-13T15:35:48;27.20;99.90
435;DHT22;204;48.942;9.256;2023-07-13T15:38:25;27.20;99.90
435;DHT22;204;48.942;9.256;2023-07-13T15:40:53;27.20;99.90
435;DHT22;204;48.942;9.256;2023-07-13T15:43:19;27.20;99.90
435;DHT22;204;48.942;9.256;2023-07-13T15:45:46;27.20;99.90
435;DHT22;204;48.942;9.256;2023-07-13T15:48:19;27.20;99.90
435;DHT22;204;48.942;9.256;2023-07-13T15:50:48;27.10;99.90
435;DHT22;204;48.942;9.256;2023-07-13T15:53:23;27.10;99.90
435;DHT22;204;48.942;9.256;2023-07-13T15:55:49;27.10;99.90
435;DHT22;204;48.942;9.256;2023-07-13T15:58:15;27.20;99.90
435;DHT22;204;48.942;9.256;2023-07-13T16:00:42;27.20;99.90
435;DHT22;204;48.942;9.256;2023-07-13T16:03:08;27.30;99.90
435;DHT22;204;48.942;9.256;2023-07-13T16:05:34;27.20;99.90
435;DHT22;204;48.942;9.256;2023-07-13T16:08:01;27.20;99.90
435;DHT22;204;48.942;9.256;2023-07-13T16:10:37;27.20;99.90
435;DHT22;204;48.942;9.256;2023-07-13T16:13:15;27.10;99.90
435;DHT22;204;48.942;9.256;2023-07-13T16:15:41;27.10;99.90
435;DHT22;204;48.942;9.256;2023-07-13T16:18:11;27.20;99.90
435;DHT22;204;48.942;9.256;2023-07-13T16:20:38;27.20;99.90
435;DHT22;204;48.942;9.256;2023-07-13T16:23:04;27.10;99.90
435;DHT22;204;48.942;9.256;2023-07-13T16:25:30;27.00;99.90
435;DHT22;204;48.942;9.256;2023-07-13T16:27:57;27.00;99.90
435;DHT22;204;48.942;9.256;2023-07-13T16:30:27;27.00;99.90
435;DHT22;204;48.942;9.256;2023-07-13T16:32:55;27.00;99.90
435;DHT22;204;48.942;9.256;2023-07-13T16:35:23;27.00;99.90
435;DHT22;204;48.942;9.256;2023-07-13T16:37:50;26.90;99.90
435;DHT22;204;48.942;9.256;2023-07-13T16:40:23;27.00;99.90
435;DHT22;204;48.942;9.256;2023-07-13T16:42:54;27.10;99.90
435;DHT22;204;48.942;9.256;2023-07-13T16:45:21;27.00;99.90
435;DHT22;204;48.942;9.256;2023-07-13T16:47:50;26.90;99.90
435;DHT22;204;48.942;9.256;2023-07-13T16:50:19;26.90;99.90
435;DHT22;204;48.942;9.256;2023-07-13T16:52:45;26.90;99.90
435;DHT22;204;48.942;9.256;2023-07-13T16:55:12;26.80;99.90
435;DHT22;204;48.942;9.256;2023-07-13T16:57:41;26.70;99.90
435;DHT22;204;48.942;9.256;2023-07-13T17:00:24;26.70;99.90
435;DHT22;204;48.942;9.256;2023-07-13T17:02:56;26.60;99.90
435;DHT22;204;48.942;9.256;2023-07-13T17:05:28;26.50;99.90
435;DHT22;204;48.942;9.256;2023-07-13T17:07:54;26.50;99.90
435;DHT22;204;48.942;9.256;2023-07-13T17:10:22;26.40;99.90
435;DHT22;204;48.942;9.256;2023-07-13T17:12:53;26.40;99.90
435;DHT22;204;48.942;9.256;2023-07-13T17:15:19;26.30;99.90
435;DHT22;204;48.942;9.256;2023-07-13T17:17:47;26.30;99.90
435;DHT22;204;48.942;9.256;2023-07-13T17:20:22;26.20;99.90
435;DHT22;204;48.942;9.256;2023-07-13T17:22:50;26.20;99.90
435;DHT22;204;48.942;9.256;2023-07-13T17:25:17;26.10;99.90
435;DHT22;204;48.942;9.256;2023-07-13T17:27:43;26.10;99.90
435;DHT22;204;48.942;9.256;2023-07-13T17:30:22;26.10;99.90
435;DHT22;204;48.942;9.256;2023-07-13T17:32:50;26.00;99.90
435;DHT22;204;48.942;9.256;2023-07-13T17:35:25;26.00;99.90
435;DHT22;204;48.942;9.256;2023-07-13T17:37:59;25.90;99.90
435;DHT22;204;48.942;9.256;2023-07-13T17:40:26;25.90;99.90
435;DHT22;204;48.942;9.256;2023-07-13T17:42:52;25.80;99.90